Time;durP1;ratioP1;P1;durP2;ratioP2;P2;SDS_P1;SDS_P2;PMS_P1;PMS_P2;Temp;Humidity;BMP_temperature;BMP_pressure;BME280_temperature;BME280_humidity;BME280_pressure;Samples;Min_cycle;Max_cycle;Signal;HPM_P1;HPM_P2
2022/01/05 00:08:20;;;;;;;29.10;14.90;;;;;;;7.36;100.00;98054.13;716106;1177;113681;-84
2022/01/05 00:23:22;;;;;;;29.60;15.40;;;;;;;7.39;100.00;98064.22;715855;1203;114125;-86
2022/01/05 00:38:24;;;;;;;40.73;21.55;;;;;;;7.41;100.00;98070.89;716528;1202;114216;-86
2022/01/05 00:53:27;;;;;;;28.03;13.93;;;;;;;7.40;100.00;98076.28;715852;1180;113867;-86
2022/01/05 01:08:29;;;;;;;10.10;5.80;;;;;;;7.30;100.00;98099.97;715840;1182;114583;-86
2022/01/05 01:23:32;;;;;;;5.75;3.75;;;;;;;7.18;100.00;98127.36;715627;1199;114716;-86
2022/01/05 01:38:34;;;;;;;7.80;5.10;;;;;;;7.07;100.00;98131.94;715199;1202;114737;-87
2022/01/05 01:53:37;;;;;;;9.55;5.05;;;;;;;7.03;100.00;98156.71;716111;1178;114253;-86
2022/01/05 02:08:40;;;;;;;3.40;2.43;;;;;;;6.75;100.00;98175.30;715701;1178;113342;-86
2022/01/05 02:23:42;;;;;;;5.43;2.00;;;;;;;6.32;100.00;98198.84;715612;1204;113995;-86
2022/01/05 02:38:46;;;;;;;2.50;1.70;;;;;;;5.81;100.00;98231.81;715672;1202;113953;-84
2022/01/05 02:53:49;;;;;;;3.05;1.15;;;;;;;5.46;100.00;98275.99;715988;1202;114687;-87
2022/01/05 03:08:51;;;;;;;2.33;1.08;;;;;;;5.21;100.00;98300.95;715871;1202;114380;-84
2022/01/05 03:23:53;;;;;;;2.55;1.50;;;;;;;5.05;100.00;98314.63;716473;1202;114030;-86
2022/01/05 03:38:55;;;;;;;4.48;2.25;;;;;;;4.89;100.00;98306.69;716119;1203;113500;-86
2022/01/05 03:53:57;;;;;;;7.10;3.23;;;;;;;4.74;100.00;98294.19;715849;1202;114913;-86
2022/01/05 04:09:00;;;;;;;19.75;11.25;;;;;;;4.52;100.00;98325.77;715748;1203;113707;-86
2022/01/05 04:24:02;;;;;;;26.38;11.45;;;;;;;4.21;100.00;98334.64;715640;1202;115059;-85
2022/01/05 04:39:04;;;;;;;7.70;3.57;;;;;;;4.09;100.00;98344.38;716235;1205;113958;-85
2022/01/05 04:54:07;;;;;;;12.70;6.60;;;;;;;4.04;100.00;98312.00;715500;1202;114256;-85
2022/01/05 05:09:09;;;;;;;16.73;6.83;;;;;;;3.87;100.00;98279.83;715300;1177;113679;-75
2022/01/05 05:24:13;;;;;;;16.40;7.23;;;;;;;3.54;100.00;98310.47;714459;1177;113526;-85
2022/01/05 05:39:15;;;;;;;10.27;4.03;;;;;;;3.50;100.00;98356.63;716167;1177;113798;-84
2022/01/05 05:54:17;;;;;;;7.25;3.63;;;;;;;3.65;100.00;98354.42;716244;1179;113482;-82
2022/01/05 06:09:20;;;;;;;7.20;4.23;;;;;;;3.63;100.00;98331.22;717407;1202;113533;-84
2022/01/05 06:24:22;;;;;;;17.60;6.55;;;;;;;3.64;100.00;98352.77;715672;1176;113977;-84
2022/01/05 06:39:24;;;;;;;15.50;7.33;;;;;;;3.63;100.00;98361.53;715694;1204;114309;-84
2022/01/05 06:54:26;;;;;;;23.83;9.70;;;;;;;3.63;100.00;98379.69;715504;1203;113585;-84
2022/01/05 07:09:28;;;;;;;19.15;9.65;;;;;;;3.59;100.00;98373.95;715487;1202;114548;-83
2022/01/05 07:24:31;;;;;;;13.43;5.23;;;;;;;3.65;100.00;98385.54;715207;1206;114079;-83
2022/01/05 07:39:33;;;;;;;12.28;7.40;;;;;;;3.67;100.00;98373.27;715205;1202;114229;-75
2022/01/05 07:54:36;;;;;;;31.70;17.50;;;;;;;3.61;100.00;98389.36;714095;1176;115496;-80
2022/01/05 08:09:40;;;;;;;22.53;11.53;;;;;;;3.80;100.00;98389.36;713908;1202;114275;-79
2022/01/05 08:24:42;;;;;;;23.57;12.70;;;;;;;4.03;100.00;98389.05;715541;1203;114300;-86
2022/01/05 08:39:49;;;;;;;20.20;9.97;;;;;;;4.41;100.00;98384.70;714058;1202;114408;-74
2022/01/05 08:54:52;;;;;;;15.20;8.03;;;;;;;4.76;100.00;98400.55;714459;1205;114329;-74
2022/01/05 09:09:54;;;;;;;20.88;9.03;;;;;;;4.88;100.00;98414.98;716787;1202;114251;-74
2022/01/05 09:24:57;;;;;;;39.33;24.23;;;;;;;5.02;100.00;98426.69;713722;1203;114107;-73
2022/01/05 09:55:20;;;;;;;18.97;10.20;;;;;;;5.17;100.00;98401.00;713697;1202;115078;-74
2022/01/05 10:10:23;;;;;;;68.73;25.80;;;;;;;5.30;100.00;98411.86;713734;1203;114370;-75
2022/01/05 10:25:25;;;;;;;21.10;10.90;;;;;;;5.64;100.00;98406.00;713686;1202;113978;-75
2022/01/05 10:40:27;;;;;;;23.30;10.47;;;;;;;5.64;100.00;98400.00;713813;1202;114015;-81
2022/01/05 10:55:32;;;;;;;25.08;12.50;;;;;;;5.90;100.00;98366.21;713739;1202;114928;-82
2022/01/05 11:10:35;;;;;;;22.85;10.30;;;;;;;5.96;100.00;98367.38;713842;1177;114623;-82
2022/01/05 11:25:42;;;;;;;25.83;10.90;;;;;;;6.33;100.00;98358.52;713884;1202;114737;-82
2022/01/05 11:40:48;;;;;;;18.58;9.25;;;;;;;6.61;100.00;98368.73;714508;1202;113824;-83
2022/01/05 11:55:59;;;;;;;46.00;20.55;;;;;;;6.42;100.00;98357.58;715329;1185;113710;-82
2022/01/05 12:11:01;;;;;;;17.90;10.30;;;;;;;5.98;100.00;98375.90;713785;1202;113871;-82
2022/01/05 12:26:05;;;;;;;30.93;11.93;;;;;;;5.82;100.00;98363.56;714166;1202;114383;-81
2022/01/05 12:41:38;;;;;;;24.63;11.73;;;;;;;5.97;100.00;98349.00;715202;1189;114189;-82
2022/01/05 12:56:53;;;;;;;62.53;21.63;;;;;;;5.91;100.00;98393.88;715641;1203;113859;-82
2022/01/05 13:12:01;;;;;;;38.95;13.45;;;;;;;5.80;100.00;98405.32;715760;1201;114440;-80
2022/01/05 13:27:06;;;;;;;42.60;18.70;;;;;;;5.75;100.00;98406.75;716748;1176;113741;-81
2022/01/05 13:42:15;;;;;;;63.87;33.40;;;;;;;5.65;100.00;98397.24;724323;1179;113788;-81
2022/01/05 13:57:31;;;;;;;41.00;18.20;;;;;;;5.54;100.00;98399.25;714501;1202;115162;-80
2022/01/05 14:12:36;;;;;;;35.47;12.03;;;;;;;5.35;100.00;98408.03;714752;1178;113751;-80
2022/01/05 14:27:43;;;;;;;23.33;10.50;;;;;;;5.21;100.00;98419.73;714596;1203;114079;-80
2022/01/05 14:42:52;;;;;;;;;;;;;;;5.11;100.00;98438.81;714649;1207;114822;-80
2022/01/05 14:57:57;;;;;;;18.43;7.87;;;;;;;5.16;100.00;98459.19;714542;1200;100675;-81
2022/01/05 15:12:59;;;;;;;33.05;14.90;;;;;;;5.22;100.00;98473.38;714084;1178;113606;-81
2022/01/05 15:28:02;;;;;;;40.28;17.70;;;;;;;5.23;100.00;98490.62;719903;1195;114992;-80
2022/01/05 15:43:04;;;;;;;22.85;12.13;;;;;;;5.22;100.00;98491.58;714880;1203;115805;-81
2022/01/05 16:01:17;;;;;;;16.07;7.43;;;;;;;5.10;99.92;98507.34;715018;1178;113948;-79
2022/01/05 16:13:30;;;;;;;15.40;7.50;;;;;;;4.95;100.00;98507.00;714849;1203;116801;-79
2022/01/05 16:28:33;;;;;;;104.13;27.33;;;;;;;4.96;99.57;98518.21;714445;1177;113980;-80
2022/01/05 16:43:35;;;;;;;10.98;6.00;;;;;;;5.01;99.55;98529.00;714074;1202;114742;-80
2022/01/05 17:13:58;;;;;;;17.55;7.35;;;;;;;4.89;100.00;98536.15;714627;1202;113851;-78
2022/01/05 17:29:02;;;;;;;19.87;8.40;;;;;;;4.88;100.00;98536.30;715216;1176;113525;-80
2022/01/05 17:44:05;;;;;;;24.88;11.88;;;;;;;4.97;100.00;98544.05;715369;1180;115059;-74
2022/01/05 17:59:08;;;;;;;71.73;22.33;;;;;;;4.94;100.00;98557.34;714383;1177;113621;-79
2022/01/05 18:14:12;;;;;;;33.70;10.30;;;;;;;4.94;100.00;98544.34;714380;1203;113537;-80
2022/01/05 18:29:16;;;;;;;18.33;9.40;;;;;;;4.95;100.00;98532.19;714298;1177;113745;-79
2022/01/05 18:44:18;;;;;;;24.48;8.00;;;;;;;5.00;100.00;98541.19;714237;1177;113591;-78
2022/01/05 18:59:21;;;;;;;24.25;9.55;;;;;;;5.00;99.82;98540.35;714219;1205;114694;-78
2022/01/05 19:14:23;;;;;;;23.97;8.00;;;;;;;5.03;99.07;98537.48;714171;1203;114765;-78
2022/01/05 19:29:26;;;;;;;31.38;19.20;;;;;;;4.95;99.60;98545.18;714279;1202;113926;-79
2022/01/05 19:44:28;;;;;;;24.10;10.30;;;;;;;4.81;99.25;98565.43;714245;1177;113394;-78
2022/01/05 19:59:49;;;;;;;13.13;7.90;;;;;;;4.78;99.70;98567.52;714176;1205;113370;-74
2022/01/05 20:15:26;;;;;;;23.17;10.33;;;;;;;4.69;100.00;98556.17;714281;1175;113441;-76
2022/01/05 20:31:03;;;;;;;26.58;12.93;;;;;;;4.68;100.00;98564.91;714528;1177;114038;-77
2022/01/05 20:46:55;;;;;;;50.20;15.95;;;;;;;4.69;100.00;98560.56;717594;1176;114301;-77
2022/01/05 21:03:57;;;;;;;27.77;12.03;;;;;;;4.65;100.00;98573.00;715406;1203;114050;-77
